Pemaquid Point Lighthouse, ME

43° 50' 13"N, 69° 30' 22"W, Elevation 40 ft.
Eastern Time

Hourly observations for the last 72 hours

Date Time Temperature (°F) Humi-
dity

(%)
Wind
(mph)
Pressure Rain (in) Sun
(W/m2)
UV ET
(in)
Air Dew 6 Hour 1 Hr 3 Hr 6 Hr Day
Alt
(in)
Sea
Level

(mb)
Max Min
25 03:00 59.7 55.2 85 NE 13 G 16 30.31 1026.5 0.00 0 0.0 0.004
25 02:00 60.1 55.6 65.9 60.1 85 NE 12 G 16 30.31 1026.6 0.00 0 0.0 0.002
25 01:00 60.8 55.9 84 ENE 15 G 17 30.32 1026.7 0.00 0 0.0 0.000
25 00:00 61.8 56.6 83 NE 7 G 10 30.32 1026.7 0.00 0 0.0 0.092
24 23:00 62.4 56.8 82 ENE 9 G 12 30.30 1026.1 0.00 0 0.0 0.091
24 22:00 63.6 58.7 84 ENE 8 G 12 30.29 1025.7 0.00 0 0.0 0.090
24 21:00 64.9 58.2 79 NNE 3 G 7 30.27 1025.1 0.00 0 0.0 0.089
24 20:00 65.9 57.4 68.5 65.9 74 N 4 G 7 30.25 1024.3 0.00 0 0.0 0.088
24 19:00 66.2 58.4 76 NNE 3 G 7 30.23 1023.7 0.00 11 0.0 0.086
24 18:00 67.8 58.8 73 NNE 7 G 11 30.21 1023.2 0.00 278 0.5 0.080
24 17:00 67.3 59.8 77 N 5 G 7 30.19 1022.5 0.00 156 0.9 0.076
24 16:00 66.2 59.5 79 ENE 1 G 4 30.18 1022.2 0.00 69 0.6 0.072
24 15:00 66.6 59.2 77 E 2 G 5 30.18 1021.9 0.00 93 0.9 0.068
24 14:00 66.3 60.3 71.1 60.5 81 E 7 G 9 30.16 1021.4 0.00 160 1.5 0.060
24 13:00 70.7 60.0 69 NE 7 G 9 30.15 1021.0 0.00 1127 7.0 0.043
24 12:00 70.1 58.2 66 N 4 G 12 30.14 1020.8 0.00 1016 5.8 0.028
24 11:00 68.1 57.6 69 N 9 G 17 30.14 1020.6 0.00 267 3.3 0.014
24 10:00 66.9 58.0 73 NNE 11 G 17 30.13 1020.3 0.00 58 2.1 0.011
24 09:00 64.1 56.7 77 N 5 G 15 30.12 1020.0 0.00 47 0.0 0.009
24 08:00 60.5 54.6 60.5 56.1 81 N 8 G 12 30.11 1019.8 0.00 40 0.0 0.007
24 07:00 57.3 52.5 84 NNW 10 G 17 30.09 1019.0 0.00 30 0.0 0.006
24 06:00 56.2 51.8 85 NW 7 G 15 30.06 1018.1 0.00 7 0.0 0.005
24 05:00 56.7 51.9 84 NW 7 G 12 30.04 1017.4 0.00 0 0.0 0.004
24 04:00 57.2 52.4 84 NW 6 G 9 30.02 1016.8 0.00 0 0.0 0.003
24 03:00 58.5 52.7 81 NW 5 G 8 30.03 1016.8 0.00 0 0.0 0.002
24 02:00 58.6 53.1 68.8 58.5 82 WNW 5 G 8 30.01 1016.3 0.00 0 0.0 0.001
24 01:00 60.6 53.4 77 NW 4 G 8 30.00 1016.1 0.00 0 0.0 0.000
24 00:00 62.2 53.8 74 NNW 3 G 10 29.99 1015.5 0.00 0 0.0 0.140
23 23:00 64.0 54.0 70 NNW 6 G 11 29.98 1015.2 0.00 0 0.0 0.138
23 22:00 66.3 54.2 65 NNW 5 G 9 29.97 1014.9 0.00 0 0.0 0.135
23 21:00 67.4 54.8 64 NNW 3 G 10 29.96 1014.5 0.00 0 0.0 0.132
23 20:00 68.8 55.3 77.7 68.8 62 NW 5 G 9 29.94 1014.0 0.00 0 0.0 0.129
23 19:00 70.8 55.8 59 NW 8 G 16 29.92 1013.4 0.00 16 0.0 0.127
23 18:00 70.0 60.6 72 WNW 4 G 6 29.92 1013.2 0.00 77 0.5 0.123
23 17:00 73.9 60.5 63 WNW 4 G 11 29.90 1012.6 0.00 232 1.2 0.113
23 16:00 71.6 65.1 80 SW 2 G 8 29.89 1012.3 0.00 279 2.5 0.101
23 15:00 72.8 65.5 78 SW 4 G 11 29.89 1012.3 0.00 714 3.4 0.082
23 14:00 76.0 60.7 76.4 65.7 59 WNW 6 G 13 29.89 1012.2 0.00 863 4.7 0.062
23 13:00 75.5 61.1 61 WNW 7 G 12 29.90 1012.4 0.00 1060 6.5 0.043
23 12:00 74.1 59.8 61 WNW 6 G 11 29.91 1012.8 0.00 462 4.5 0.028
23 11:00 71.5 61.6 71 NW 7 G 14 29.90 1012.7 0.00 510 3.8 0.019
23 10:00 69.9 62.0 76 NW 7 G 13 29.90 1012.6 0.00 248 2.7 0.015
23 09:00 66.8 60.4 80 NW 5 G 8 29.90 1012.6 0.00 176 1.6 0.011
23 08:00 65.8 59.8 69.1 65.0 81 NW 4 G 8 29.90 1012.5 0.00 118 0.7 0.008
23 07:00 65.1 60.1 84 NW 4 G 9 29.88 1012.0 0.00 58 0.0 0.007
23 06:00 65.4 59.8 82 NW 6 G 9 29.85 1011.0 0.00 14 0.0 0.006
23 05:00 66.3 60.0 80 NW 7 G 12 29.84 1010.7 0.00 0 0.0 0.005
23 04:00 66.5 60.5 81 NW 3 G 7 29.84 1010.5 0.00 0 0.0 0.004
23 03:00 68.6 61.1 77 NNW 5 G 11 29.84 1010.4 0.00 0 0.0 0.002
23 02:00 68.8 62.0 70.9 68.8 79 NW 4 G 7 29.83 1010.2 0.00 0 0.0 0.001
23 01:00 69.4 63.3 81 NW 6 G 9 29.83 1010.3 0.00 0 0.0 0.000
23 00:00 70.3 65.6 85 WNW 6 G 10 29.82 1009.7 0.01 0 0.0 0.139
22 23:00 70.3 68.5 94 WNW 2 G 5 29.81 1009.4 0.01 0 0.0 0.139
22 22:00 70.8 69.3 95 WNW 4 G 7 29.78 1008.6 0.01 0 0.0 0.139
22 21:00 70.1 68.6 95 WNW 2 G 4 29.78 1008.5 0.01 0 0.0 0.139
22 20:00 69.4 67.6 72.9 69.4 94 W 7 G 11 29.77 1008.2 0.01 0 0.0 0.138
22 19:00 70.4 68.3 93 W 8 G 12 29.76 1007.7 0.01 58 0.0 0.135
22 18:00 70.6 67.8 91 SW 6 G 14 29.75 1007.6 0.01 179 0.6 0.127
22 17:00 71.9 68.5 89 SSW 10 G 13 29.75 1007.3 0.01 287 1.4 0.115
22 16:00 70.2 67.1 90 SSW 10 G 12 29.76 1007.8 0.01 294 2.5 0.103
22 15:00 72.3 68.5 88 SSW 4 G 7 29.77 1008.2 0.01 338 3.3 0.085
22 14:00 72.6 68.8 73.5 65.8 88 SSW 7 G 13 29.79 1008.7 0.01 0.01 867 5.8 0.064
22 13:00 72.7 68.9 88 SW 6 G 10 29.79 1008.7 0.01 861 6.6 0.045
22 12:00 71.0 68.9 93 SW 4 G 9 29.80 1009.3 0.01 863 6.2 0.026
22 11:00 68.3 67.1 96 SW 3 G 5 29.81 1009.7 0.01 0.01 0.01 779 5.1 0.013
22 10:00 67.8 66.6 96 SW 2 G 7 29.83 1010.1 0.00 329 2.5 0.006
22 09:00 66.6 65.4 96 WSW 3 G 6 29.82 1009.9 0.00 218 1.3 0.003
22 08:00 65.8 64.9 68.8 63.9 97 W 4 G 10 29.82 1009.7 0.00 98 0.8 0.001
22 07:00 64.5 63.3 96 SW 1 G 4 29.80 1009.1 0.00 56 0.0 0.000
22 06:00 66.9 65.7 96 W 2 G 4 29.79 1008.8 0.00 7 0.0 0.000
22 05:00 68.2 67.0 96 W 8 G 10 29.77 1008.3 0.00 0 0.0 0.000
22 04:00 68.8 67.6 96 WNW 5 G 11 29.76 1007.9 0.00 0 0.0 0.000

Data generated by WxSolution Version 1.9.1.5, Build 2018.05.20.